Mt New Conquest — V7GG4 — position and weather

sailwx.info

Track history (hours):
 
Tides and Currents Weather Stations Pressure Air Temp Water Temp Dewpoint Dewpoint Depression Visibility Wind Speed Wind Dir Waves Ship Positions

Mt New Conquest

Last reported at 2015-Sep-03 21:33 UTC. Time now 2015-Sep-04 07:53 UTC.
Position N 36°41' E 000°39'.

Length 228 m; draft 8.2 m.

Type: Tanker. MMSI: 538002089.

Date/timePositionNaut miles runAvg speedWind from/ knotsBaromVisibWave heightAir tempDewpointWater temp
2015-Sep-03 21:33N 36°41' E 000°39'1412.5
2015-Sep-03 20:25N 36°45' E 000°56'1112.6
2015-Sep-03 19:33N 36°48' E 001°09'1312.8
2015-Sep-03 18:32N 36°52' E 001°25'1412.8
2015-Sep-03 17:27N 36°55' E 001°42'1212.9
2015-Sep-03 16:33N 36°58' E 001°56'1313.1
2015-Sep-03 15:33N 37°02' E 002°11'1313.1
2015-Sep-03 14:34N 37°04' E 002°27'1313.2
2015-Sep-03 13:34N 37°08' E 002°43'9213.2
2015-Sep-03 06:33N 37°20' E 004°38'1313.3
2015-Sep-03 05:33N 37°23' E 004°55'1313.2
2015-Sep-03 04:33N 37°25' E 005°11'13413.3
2015-Sep-02 18:27N 37°38' E 007°59'8112.8
2015-Sep-02 12:08N 37°39' E 009°42'4612.7
2015-Sep-02 08:29N 37°34' E 010°40'1212.4
2015-Sep-02 07:32N 37°31' E 010°54'1212.5
2015-Sep-02 06:33N 37°28' E 011°09'1212.4
2015-Sep-02 05:33N 37°23' E 011°23'1313.1
2015-Sep-02 04:33N 37°17' E 011°38'1312.8
2015-Sep-02 03:33N 37°11' E 011°52'1212.5
2015-Sep-02 02:33N 37°05' E 012°06'1211.9
2015-Sep-02 01:33N 36°59' E 012°19'1312.6
2015-Sep-02 00:33N 36°53' E 012°33'1212.3
2015-Sep-01 23:33N 36°48' E 012°47'1212.1
2015-Sep-01 22:33N 36°42' E 012°60'1212.2
2015-Sep-01 21:33N 36°36' E 013°13'1212.2
2015-Sep-01 20:33N 36°31' E 013°27'1212.2
2015-Sep-01 19:32N 36°25' E 013°40'1312.6
2015-Sep-01 18:33N 36°19' E 013°54'1312.9
2015-Sep-01 17:33N 36°14' E 014°09'1312.9
2015-Sep-01 16:33N 36°06' E 014°22'1312.8
2015-Sep-01 15:33N 35°58' E 014°34'1212.3
2015-Sep-01 14:33N 35°52' E 014°47'2 1.6
2015-Sep-01 13:23N 35°52' E 014°49'0 0.0
2015-Sep-01 12:26N 35°52' E 014°49'0 0.0
2015-Sep-01 11:23N 35°52' E 014°49'0 0.0
2015-Sep-01 10:32N 35°52' E 014°49'0 0.0
2015-Sep-01 09:17N 35°52' E 014°49'0 0.1
2015-Sep-01 08:23N 35°52' E 014°49'0 0.0
2015-Sep-01 07:29N 35°52' E 014°49'0 0.1
2015-Sep-01 06:29N 35°52' E 014°49'0 0.0
2015-Sep-01 04:11N 35°52' E 014°49'0 0.0
2015-Sep-01 03:23N 35°52' E 014°49'0 0.0
2015-Sep-01 00:32N 35°52' E 014°49'0 0.0
2015-Aug-31 23:26N 35°52' E 014°49'0 0.0
2015-Aug-31 22:29N 35°52' E 014°49'0 0.0
2015-Aug-31 21:32N 35°52' E 014°49'0 0.1
2015-Aug-31 19:32N 35°52' E 014°49'0 0.1
2015-Aug-31 18:32N 35°52' E 014°49'0 0.1
2015-Aug-31 17:17N 35°52' E 014°49'0 0.0
2015-Aug-31 16:26N 35°52' E 014°49'0 0.0
2015-Aug-31 15:32N 35°52' E 014°49'0 0.0
2015-Aug-31 14:26N 35°52' E 014°49'0 0.0
2015-Aug-31 13:29N 35°52' E 014°49'0 0.0
2015-Aug-31 12:23N 35°52' E 014°49'0 0.0
2015-Aug-31 11:14N 35°52' E 014°49'0 0.0
2015-Aug-31 01:32N 35°52' E 014°49'0 0.0
2015-Aug-31 00:32N 35°52' E 014°49'0 0.2
2015-Aug-30 23:26N 35°52' E 014°49'4 4.0
2015-Aug-30 22:32N 35°53' E 014°45'0 0.0
2015-Aug-30 21:32N 35°53' E 014°45'0 0.0
2015-Aug-30 20:32N 35°53' E 014°45'0 0.0
2015-Aug-30 19:29N 35°53' E 014°45'0 0.1
2015-Aug-30 18:17N 35°53' E 014°45'0 0.0
2015-Aug-30 17:32N 35°53' E 014°45'0 0.0
2015-Aug-30 16:32N 35°53' E 014°45'0 0.0
2015-Aug-30 15:32N 35°53' E 014°45'0 0.1
2015-Aug-30 14:26N 35°53' E 014°45'5 6.0
2015-Aug-30 13:33N 35°56' E 014°40'7 6.8
2015-Aug-30 12:33N 36°01' E 014°33'1312.7
2015-Aug-30 11:33N 36°08' E 014°20'1413.7
2015-Aug-30 10:34N 36°14' E 014°05'1413.7
2015-Aug-30 09:33N 36°20' E 013°50'1413.8
2015-Aug-30 08:33N 36°26' E 013°34'1413.9
2015-Aug-30 07:33N 36°32' E 013°19'1413.7
2015-Aug-30 06:33N 36°38' E 013°03'1413.7
2015-Aug-30 05:33N 36°44' E 012°48'1413.6
2015-Aug-30 04:33N 36°50' E 012°33'1413.9
2015-Aug-30 03:33N 36°56' E 012°17'1413.5
2015-Aug-30 02:33N 37°01' E 012°02'1313.5
2015-Aug-30 01:33N 37°08' E 011°47'1413.5
2015-Aug-30 00:33N 37°14' E 011°31'1313.4
2015-Aug-29 23:33N 37°19' E 011°16'1313.5
2015-Aug-29 22:33N 37°27' E 011°02'1413.7
2015-Aug-29 21:33N 37°34' E 010°47'1313.4
2015-Aug-29 20:34N 37°41' E 010°33'2612.7
2015-Aug-29 18:30N 37°55' E 010°05'1212.7
2015-Aug-29 17:33N 38°00' E 009°51'1212.6
2015-Aug-29 16:33N 38°06' E 009°37'1212.4
2015-Aug-29 15:33N 38°12' E 009°23'4112.2
2015-Aug-29 12:13N 38°31' E 008°37'812.1
2015-Aug-29 11:33N 38°36' E 008°29'12312.0
2015-Aug-29 01:15N 40°06' E 006°40'913.1
2015-Aug-29 00:33N 40°14' E 006°34'2612.7
2015-Aug-28 22:30N 40°36' E 006°16'1212.9
2015-Aug-28 21:33N 40°47' E 006°08'1312.9
2015-Aug-28 20:33N 40°58' E 005°60'1312.9
2015-Aug-28 19:33N 41°09' E 005°51'1313.2
2015-Aug-28 18:33N 41°20' E 005°42'1313.4
2015-Aug-28 17:33N 41°33' E 005°37'1313.1
2015-Aug-28 16:33N 41°46' E 005°32'1313.2
2015-Aug-28 15:33N 41°58' E 005°26'1812.9
2015-Aug-28 14:10N 42°16' E 005°21'2313.0
2015-Aug-28 12:22N 42°38' E 005°13'1213.3
2015-Aug-28 11:30N 42°50' E 005°08'1313.2
2015-Aug-28 10:29N 43°03' E 005°05'1213.0
2015-Aug-28 09:33N 43°14' E 005°00'1010.4
2015-Aug-28 08:34N 43°24' E 004°55'1 1.1
2015-Aug-28 07:15N 43°25' E 004°53'0 0.0
2015-Aug-28 06:31N 43°25' E 004°53'0 0.0
2015-Aug-28 05:31N 43°25' E 004°53'0 0.0
2015-Aug-28 04:31N 43°25' E 004°53'0 0.0
2015-Aug-28 03:31N 43°25' E 004°53'0 0.0
2015-Aug-28 02:31N 43°25' E 004°53'0 0.0
2015-Aug-28 01:31N 43°25' E 004°53'0 0.0
2015-Aug-28 00:31N 43°25' E 004°53'0 0.0
2015-Aug-27 23:31N 43°25' E 004°53'0 0.0
2015-Aug-27 22:31N 43°25' E 004°53'0 0.0
2015-Aug-27 21:31N 43°25' E 004°53'0 0.0
2015-Aug-27 20:31N 43°25' E 004°53'0 0.0
2015-Aug-27 19:28N 43°25' E 004°53'0 0.0
2015-Aug-27 18:28N 43°25' E 004°53'0 0.0
2015-Aug-27 17:31N 43°25' E 004°53'0 0.0
2015-Aug-27 16:31N 43°25' E 004°53'0 0.0
2015-Aug-27 15:31N 43°25' E 004°53'0 0.0
2015-Aug-27 14:25N 43°25' E 004°53'0 0.0
2015-Aug-27 13:31N 43°25' E 004°53'0 0.0
2015-Aug-27 12:28N 43°25' E 004°53'4 4.2
2015-Aug-27 11:33N 43°23' E 004°58'8 8.1
2015-Aug-27 10:33N 43°15' E 005°01'7 6.8
2015-Aug-27 09:34N 43°08' E 005°03'1414.2
2015-Aug-27 08:34N 42°54' E 005°03'1514.6
2015-Aug-27 07:34N 42°39' E 005°04'1414.2
2015-Aug-27 06:34N 42°25' E 005°06'1514.2
2015-Aug-27 05:31N 42°11' E 005°08'8414.0
2015-Aug-26 23:31N 40°47' E 005°04'15414.0
2015-Aug-26 12:33N 38°13' E 005°06'  
Track history (hours):
 
Tides and Currents Weather Stations Pressure Air Temp Water Temp Dewpoint Dewpoint Depression Visibility Wind Speed Wind Dir Waves Ship Positions

Mt New Conquest

Last reported at 2015-Sep-03 21:33 UTC. Time now 2015-Sep-04 07:53 UTC.
Position N 36°41' E 000°39'.

Length 228 m; draft 8.2 m.

Type: Tanker. MMSI: 538002089.

Date/timePositionNaut miles runAvg speedWind from/ knotsBaromVisibWave heightAir tempDewpointWater temp
2015-Sep-03 21:33N 36°41' E 000°39'1412.5
2015-Sep-03 20:25N 36°45' E 000°56'1112.6
2015-Sep-03 19:33N 36°48' E 001°09'1312.8
2015-Sep-03 18:32N 36°52' E 001°25'1412.8
2015-Sep-03 17:27N 36°55' E 001°42'1212.9
2015-Sep-03 16:33N 36°58' E 001°56'1313.1
2015-Sep-03 15:33N 37°02' E 002°11'1313.1
2015-Sep-03 14:34N 37°04' E 002°27'1313.2
2015-Sep-03 13:34N 37°08' E 002°43'9213.2
2015-Sep-03 06:33N 37°20' E 004°38'1313.3
2015-Sep-03 05:33N 37°23' E 004°55'1313.2
2015-Sep-03 04:33N 37°25' E 005°11'13413.3
2015-Sep-02 18:27N 37°38' E 007°59'8112.8
2015-Sep-02 12:08N 37°39' E 009°42'4612.7
2015-Sep-02 08:29N 37°34' E 010°40'1212.4
2015-Sep-02 07:32N 37°31' E 010°54'1212.5
2015-Sep-02 06:33N 37°28' E 011°09'1212.4
2015-Sep-02 05:33N 37°23' E 011°23'1313.1
2015-Sep-02 04:33N 37°17' E 011°38'1312.8
2015-Sep-02 03:33N 37°11' E 011°52'1212.5
2015-Sep-02 02:33N 37°05' E 012°06'1211.9
2015-Sep-02 01:33N 36°59' E 012°19'1312.6
2015-Sep-02 00:33N 36°53' E 012°33'1212.3
2015-Sep-01 23:33N 36°48' E 012°47'1212.1
2015-Sep-01 22:33N 36°42' E 012°60'1212.2
2015-Sep-01 21:33N 36°36' E 013°13'1212.2
2015-Sep-01 20:33N 36°31' E 013°27'1212.2
2015-Sep-01 19:32N 36°25' E 013°40'1312.6
2015-Sep-01 18:33N 36°19' E 013°54'1312.9
2015-Sep-01 17:33N 36°14' E 014°09'1312.9
2015-Sep-01 16:33N 36°06' E 014°22'1312.8
2015-Sep-01 15:33N 35°58' E 014°34'1212.3
2015-Sep-01 14:33N 35°52' E 014°47'2 1.6
2015-Sep-01 13:23N 35°52' E 014°49'0 0.0
2015-Sep-01 12:26N 35°52' E 014°49'0 0.0
2015-Sep-01 11:23N 35°52' E 014°49'0 0.0
2015-Sep-01 10:32N 35°52' E 014°49'0 0.0
2015-Sep-01 09:17N 35°52' E 014°49'0 0.1
2015-Sep-01 08:23N 35°52' E 014°49'0 0.0
2015-Sep-01 07:29N 35°52' E 014°49'0 0.1
2015-Sep-01 06:29N 35°52' E 014°49'0 0.0
2015-Sep-01 04:11N 35°52' E 014°49'0 0.0
2015-Sep-01 03:23N 35°52' E 014°49'0 0.0
2015-Sep-01 00:32N 35°52' E 014°49'0 0.0
2015-Aug-31 23:26N 35°52' E 014°49'0 0.0
2015-Aug-31 22:29N 35°52' E 014°49'0 0.0
2015-Aug-31 21:32N 35°52' E 014°49'0 0.1
2015-Aug-31 19:32N 35°52' E 014°49'0 0.1
2015-Aug-31 18:32N 35°52' E 014°49'0 0.1
2015-Aug-31 17:17N 35°52' E 014°49'0 0.0
2015-Aug-31 16:26N 35°52' E 014°49'0 0.0
2015-Aug-31 15:32N 35°52' E 014°49'0 0.0
2015-Aug-31 14:26N 35°52' E 014°49'0 0.0
2015-Aug-31 13:29N 35°52' E 014°49'0 0.0
2015-Aug-31 12:23N 35°52' E 014°49'0 0.0
2015-Aug-31 11:14N 35°52' E 014°49'0 0.0
2015-Aug-31 01:32N 35°52' E 014°49'0 0.0
2015-Aug-31 00:32N 35°52' E 014°49'0 0.2
2015-Aug-30 23:26N 35°52' E 014°49'4 4.0
2015-Aug-30 22:32N 35°53' E 014°45'0 0.0
2015-Aug-30 21:32N 35°53' E 014°45'0 0.0
2015-Aug-30 20:32N 35°53' E 014°45'0 0.0
2015-Aug-30 19:29N 35°53' E 014°45'0 0.1
2015-Aug-30 18:17N 35°53' E 014°45'0 0.0
2015-Aug-30 17:32N 35°53' E 014°45'0 0.0
2015-Aug-30 16:32N 35°53' E 014°45'0 0.0
2015-Aug-30 15:32N 35°53' E 014°45'0 0.1
2015-Aug-30 14:26N 35°53' E 014°45'5 6.0
2015-Aug-30 13:33N 35°56' E 014°40'7 6.8
2015-Aug-30 12:33N 36°01' E 014°33'1312.7
2015-Aug-30 11:33N 36°08' E 014°20'1413.7
2015-Aug-30 10:34N 36°14' E 014°05'1413.7
2015-Aug-30 09:33N 36°20' E 013°50'1413.8
2015-Aug-30 08:33N 36°26' E 013°34'1413.9
2015-Aug-30 07:33N 36°32' E 013°19'1413.7
2015-Aug-30 06:33N 36°38' E 013°03'1413.7
2015-Aug-30 05:33N 36°44' E 012°48'1413.6
2015-Aug-30 04:33N 36°50' E 012°33'1413.9
2015-Aug-30 03:33N 36°56' E 012°17'1413.5
2015-Aug-30 02:33N 37°01' E 012°02'1313.5
2015-Aug-30 01:33N 37°08' E 011°47'1413.5
2015-Aug-30 00:33N 37°14' E 011°31'1313.4
2015-Aug-29 23:33N 37°19' E 011°16'1313.5
2015-Aug-29 22:33N 37°27' E 011°02'1413.7
2015-Aug-29 21:33N 37°34' E 010°47'1313.4
2015-Aug-29 20:34N 37°41' E 010°33'2612.7
2015-Aug-29 18:30N 37°55' E 010°05'1212.7
2015-Aug-29 17:33N 38°00' E 009°51'1212.6
2015-Aug-29 16:33N 38°06' E 009°37'1212.4
2015-Aug-29 15:33N 38°12' E 009°23'4112.2
2015-Aug-29 12:13N 38°31' E 008°37'812.1
2015-Aug-29 11:33N 38°36' E 008°29'12312.0
2015-Aug-29 01:15N 40°06' E 006°40'913.1
2015-Aug-29 00:33N 40°14' E 006°34'2612.7
2015-Aug-28 22:30N 40°36' E 006°16'1212.9
2015-Aug-28 21:33N 40°47' E 006°08'1312.9
2015-Aug-28 20:33N 40°58' E 005°60'1312.9
2015-Aug-28 19:33N 41°09' E 005°51'1313.2
2015-Aug-28 18:33N 41°20' E 005°42'1313.4
2015-Aug-28 17:33N 41°33' E 005°37'1313.1
2015-Aug-28 16:33N 41°46' E 005°32'1313.2
2015-Aug-28 15:33N 41°58' E 005°26'1812.9
2015-Aug-28 14:10N 42°16' E 005°21'2313.0
2015-Aug-28 12:22N 42°38' E 005°13'1213.3
2015-Aug-28 11:30N 42°50' E 005°08'1313.2
2015-Aug-28 10:29N 43°03' E 005°05'1213.0
2015-Aug-28 09:33N 43°14' E 005°00'1010.4
2015-Aug-28 08:34N 43°24' E 004°55'1 1.1
2015-Aug-28 07:15N 43°25' E 004°53'0 0.0
2015-Aug-28 06:31N 43°25' E 004°53'0 0.0
2015-Aug-28 05:31N 43°25' E 004°53'0 0.0
2015-Aug-28 04:31N 43°25' E 004°53'0 0.0
2015-Aug-28 03:31N 43°25' E 004°53'0 0.0
2015-Aug-28 02:31N 43°25' E 004°53'0 0.0
2015-Aug-28 01:31N 43°25' E 004°53'0 0.0
2015-Aug-28 00:31N 43°25' E 004°53'0 0.0
2015-Aug-27 23:31N 43°25' E 004°53'0 0.0
2015-Aug-27 22:31N 43°25' E 004°53'0 0.0
2015-Aug-27 21:31N 43°25' E 004°53'0 0.0
2015-Aug-27 20:31N 43°25' E 004°53'0 0.0
2015-Aug-27 19:28N 43°25' E 004°53'0 0.0
2015-Aug-27 18:28N 43°25' E 004°53'0 0.0
2015-Aug-27 17:31N 43°25' E 004°53'0 0.0
2015-Aug-27 16:31N 43°25' E 004°53'0 0.0
2015-Aug-27 15:31N 43°25' E 004°53'0 0.0
2015-Aug-27 14:25N 43°25' E 004°53'0 0.0
2015-Aug-27 13:31N 43°25' E 004°53'0 0.0
2015-Aug-27 12:28N 43°25' E 004°53'4 4.2
2015-Aug-27 11:33N 43°23' E 004°58'8 8.1
2015-Aug-27 10:33N 43°15' E 005°01'7 6.8
2015-Aug-27 09:34N 43°08' E 005°03'1414.2
2015-Aug-27 08:34N 42°54' E 005°03'1514.6
2015-Aug-27 07:34N 42°39' E 005°04'1414.2
2015-Aug-27 06:34N 42°25' E 005°06'1514.2
2015-Aug-27 05:31N 42°11' E 005°08'8414.0
2015-Aug-26 23:31N 40°47' E 005°04'15414.0
2015-Aug-26 12:33N 38°13' E 005°06'  

Dump ship's entire track history